sensor_id;sensor_type;location;lat;lon;timestamp;P1;durP1;ratioP1;P2;durP2;ratioP2
5587;SDS011;2816;49.778;9.986;2024-01-07T00:02:20;15.03;;;11.23;;
5587;SDS011;2816;49.778;9.986;2024-01-07T00:04:49;20.73;;;10.33;;
5587;SDS011;2816;49.778;9.986;2024-01-07T00:07:16;17.03;;;10.83;;
5587;SDS011;2816;49.778;9.986;2024-01-07T00:09:43;17.60;;;11.57;;
5587;SDS011;2816;49.778;9.986;2024-01-07T00:12:10;16.43;;;10.90;;
5587;SDS011;2816;49.778;9.986;2024-01-07T00:14:37;19.83;;;10.20;;
5587;SDS011;2816;49.778;9.986;2024-01-07T00:17:04;16.03;;;11.17;;
5587;SDS011;2816;49.778;9.986;2024-01-07T00:19:30;16.83;;;10.43;;
5587;SDS011;2816;49.778;9.986;2024-01-07T00:22:01;15.63;;;10.53;;
5587;SDS011;2816;49.778;9.986;2024-01-07T00:24:28;18.37;;;11.20;;
5587;SDS011;2816;49.778;9.986;2024-01-07T00:26:55;16.33;;;10.60;;
5587;SDS011;2816;49.778;9.986;2024-01-07T00:29:22;17.03;;;11.40;;
5587;SDS011;2816;49.778;9.986;2024-01-07T00:31:49;19.80;;;11.30;;
5587;SDS011;2816;49.778;9.986;2024-01-07T00:34:16;18.20;;;11.07;;
5587;SDS011;2816;49.778;9.986;2024-01-07T00:36:43;18.40;;;10.07;;
5587;SDS011;2816;49.778;9.986;2024-01-07T00:39:11;16.03;;;10.70;;
5587;SDS011;2816;49.778;9.986;2024-01-07T00:41:38;18.07;;;10.10;;
5587;SDS011;2816;49.778;9.986;2024-01-07T00:44:05;17.70;;;10.60;;
5587;SDS011;2816;49.778;9.986;2024-01-07T00:46:31;15.60;;;10.17;;
5587;SDS011;2816;49.778;9.986;2024-01-07T00:48:58;12.97;;;9.37;;
5587;SDS011;2816;49.778;9.986;2024-01-07T00:51:25;15.47;;;10.23;;
5587;SDS011;2816;49.778;9.986;2024-01-07T00:53:52;19.07;;;10.27;;
5587;SDS011;2816;49.778;9.986;2024-01-07T00:56:20;21.63;;;9.93;;
5587;SDS011;2816;49.778;9.986;2024-01-07T00:58:48;16.77;;;10.30;;
5587;SDS011;2816;49.778;9.986;2024-01-07T01:01:15;15.00;;;10.20;;
5587;SDS011;2816;49.778;9.986;2024-01-07T01:03:42;17.63;;;10.70;;
5587;SDS011;2816;49.778;9.986;2024-01-07T01:06:09;15.00;;;9.77;;
5587;SDS011;2816;49.778;9.986;2024-01-07T01:08:36;16.47;;;10.20;;
5587;SDS011;2816;49.778;9.986;2024-01-07T01:11:03;16.93;;;9.90;;
5587;SDS011;2816;49.778;9.986;2024-01-07T01:13:31;12.23;;;9.13;;
5587;SDS011;2816;49.778;9.986;2024-01-07T01:15:58;16.30;;;8.87;;
5587;SDS011;2816;49.778;9.986;2024-01-07T01:18:25;16.70;;;10.13;;
5587;SDS011;2816;49.778;9.986;2024-01-07T01:20:51;14.90;;;9.70;;
5587;SDS011;2816;49.778;9.986;2024-01-07T01:23:18;12.33;;;9.27;;
5587;SDS011;2816;49.778;9.986;2024-01-07T01:25:45;13.37;;;9.10;;
5587;SDS011;2816;49.778;9.986;2024-01-07T01:28:12;13.63;;;9.70;;
5587;SDS011;2816;49.778;9.986;2024-01-07T01:30:40;11.20;;;8.70;;
5587;SDS011;2816;49.778;9.986;2024-01-07T01:33:07;13.70;;;9.23;;
5587;SDS011;2816;49.778;9.986;2024-01-07T01:35:34;11.80;;;8.53;;
5587;SDS011;2816;49.778;9.986;2024-01-07T01:38:03;12.83;;;8.63;;
5587;SDS011;2816;49.778;9.986;2024-01-07T01:40:30;13.90;;;8.50;;
5587;SDS011;2816;49.778;9.986;2024-01-07T01:42:57;13.50;;;8.80;;
5587;SDS011;2816;49.778;9.986;2024-01-07T01:45:23;12.30;;;8.63;;
5587;SDS011;2816;49.778;9.986;2024-01-07T01:47:52;13.30;;;8.17;;
5587;SDS011;2816;49.778;9.986;2024-01-07T01:50:19;17.57;;;8.27;;
5587;SDS011;2816;49.778;9.986;2024-01-07T01:52:46;12.07;;;8.33;;
5587;SDS011;2816;49.778;9.986;2024-01-07T01:55:13;13.83;;;9.20;;
5587;SDS011;2816;49.778;9.986;2024-01-07T01:57:40;11.30;;;8.10;;
5587;SDS011;2816;49.778;9.986;2024-01-07T02:00:10;12.20;;;8.07;;
5587;SDS011;2816;49.778;9.986;2024-01-07T02:02:38;11.57;;;8.17;;
5587;SDS011;2816;49.778;9.986;2024-01-07T02:05:06;11.87;;;8.20;;
5587;SDS011;2816;49.778;9.986;2024-01-07T02:07:33;13.30;;;9.00;;
5587;SDS011;2816;49.778;9.986;2024-01-07T02:10:00;11.73;;;8.40;;
5587;SDS011;2816;49.778;9.986;2024-01-07T02:12:27;18.17;;;9.37;;
5587;SDS011;2816;49.778;9.986;2024-01-07T02:14:54;13.33;;;9.33;;
5587;SDS011;2816;49.778;9.986;2024-01-07T02:17:21;14.30;;;9.17;;
5587;SDS011;2816;49.778;9.986;2024-01-07T02:19:48;23.50;;;9.23;;
5587;SDS011;2816;49.778;9.986;2024-01-07T02:22:16;13.53;;;9.23;;
5587;SDS011;2816;49.778;9.986;2024-01-07T02:24:45;14.80;;;9.37;;
5587;SDS011;2816;49.778;9.986;2024-01-07T02:27:12;17.77;;;9.80;;
5587;SDS011;2816;49.778;9.986;2024-01-07T02:29:39;12.70;;;7.87;;
5587;SDS011;2816;49.778;9.986;2024-01-07T02:32:06;14.73;;;9.10;;
5587;SDS011;2816;49.778;9.986;2024-01-07T02:34:32;14.43;;;9.00;;
5587;SDS011;2816;49.778;9.986;2024-01-07T02:36:59;16.40;;;10.53;;
5587;SDS011;2816;49.778;9.986;2024-01-07T02:39:26;13.43;;;9.00;;
5587;SDS011;2816;49.778;9.986;2024-01-07T02:41:54;17.70;;;8.60;;
5587;SDS011;2816;49.778;9.986;2024-01-07T02:44:21;17.67;;;9.60;;
5587;SDS011;2816;49.778;9.986;2024-01-07T02:46:48;12.27;;;8.10;;
5587;SDS011;2816;49.778;9.986;2024-01-07T02:49:15;17.33;;;9.90;;
5587;SDS011;2816;49.778;9.986;2024-01-07T02:51:42;11.27;;;7.70;;
5587;SDS011;2816;49.778;9.986;2024-01-07T02:54:10;12.00;;;9.00;;
5587;SDS011;2816;49.778;9.986;2024-01-07T02:56:37;14.83;;;8.67;;
5587;SDS011;2816;49.778;9.986;2024-01-07T02:59:06;12.87;;;8.67;;
5587;SDS011;2816;49.778;9.986;2024-01-07T03:01:32;12.13;;;8.73;;
5587;SDS011;2816;49.778;9.986;2024-01-07T03:04:05;11.10;;;8.67;;
5587;SDS011;2816;49.778;9.986;2024-01-07T03:06:32;13.97;;;8.63;;
5587;SDS011;2816;49.778;9.986;2024-01-07T03:08:58;13.53;;;8.40;;
5587;SDS011;2816;49.778;9.986;2024-01-07T03:11:25;10.43;;;8.07;;
5587;SDS011;2816;49.778;9.986;2024-01-07T03:13:52;11.93;;;8.13;;
5587;SDS011;2816;49.778;9.986;2024-01-07T03:16:21;11.73;;;7.70;;
5587;SDS011;2816;49.778;9.986;2024-01-07T03:18:48;12.27;;;8.63;;
5587;SDS011;2816;49.778;9.986;2024-01-07T03:21:18;12.43;;;7.83;;
5587;SDS011;2816;49.778;9.986;2024-01-07T03:23:46;14.20;;;8.47;;
5587;SDS011;2816;49.778;9.986;2024-01-07T03:26:13;12.80;;;7.83;;
5587;SDS011;2816;49.778;9.986;2024-01-07T03:28:41;11.00;;;7.63;;
5587;SDS011;2816;49.778;9.986;2024-01-07T03:31:09;10.17;;;8.03;;
5587;SDS011;2816;49.778;9.986;2024-01-07T03:33:39;9.40;;;7.07;;
5587;SDS011;2816;49.778;9.986;2024-01-07T03:36:08;11.90;;;7.83;;
5587;SDS011;2816;49.778;9.986;2024-01-07T03:38:35;10.53;;;7.70;;
5587;SDS011;2816;49.778;9.986;2024-01-07T03:41:02;12.63;;;7.93;;
5587;SDS011;2816;49.778;9.986;2024-01-07T03:43:29;9.93;;;7.20;;
5587;SDS011;2816;49.778;9.986;2024-01-07T03:45:56;11.60;;;7.23;;
5587;SDS011;2816;49.778;9.986;2024-01-07T03:48:23;13.87;;;8.27;;
5587;SDS011;2816;49.778;9.986;2024-01-07T03:50:52;13.50;;;9.33;;
5587;SDS011;2816;49.778;9.986;2024-01-07T03:53:20;11.43;;;7.40;;
5587;SDS011;2816;49.778;9.986;2024-01-07T03:55:46;12.53;;;7.83;;
5587;SDS011;2816;49.778;9.986;2024-01-07T03:58:13;12.67;;;8.27;;
5587;SDS011;2816;49.778;9.986;2024-01-07T04:00:40;13.20;;;7.57;;
5587;SDS011;2816;49.778;9.986;2024-01-07T04:03:07;14.63;;;9.93;;
5587;SDS011;2816;49.778;9.986;2024-01-07T04:05:34;13.67;;;8.30;;
5587;SDS011;2816;49.778;9.986;2024-01-07T04:08:03;13.73;;;8.33;;
5587;SDS011;2816;49.778;9.986;2024-01-07T04:10:30;12.53;;;8.00;;
5587;SDS011;2816;49.778;9.986;2024-01-07T04:12:57;10.17;;;7.30;;
5587;SDS011;2816;49.778;9.986;2024-01-07T04:15:24;13.27;;;7.90;;
5587;SDS011;2816;49.778;9.986;2024-01-07T04:17:50;13.40;;;8.10;;
5587;SDS011;2816;49.778;9.986;2024-01-07T04:20:17;10.97;;;6.97;;
5587;SDS011;2816;49.778;9.986;2024-01-07T04:22:44;13.43;;;9.23;;
5587;SDS011;2816;49.778;9.986;2024-01-07T04:25:12;9.10;;;6.40;;
5587;SDS011;2816;49.778;9.986;2024-01-07T04:27:39;14.23;;;7.60;;
5587;SDS011;2816;49.778;9.986;2024-01-07T04:30:06;11.57;;;7.10;;
5587;SDS011;2816;49.778;9.986;2024-01-07T04:32:34;10.23;;;7.47;;
5587;SDS011;2816;49.778;9.986;2024-01-07T04:35:01;10.53;;;6.67;;
5587;SDS011;2816;49.778;9.986;2024-01-07T04:37:28;9.53;;;6.63;;
5587;SDS011;2816;49.778;9.986;2024-01-07T04:39:54;9.97;;;6.77;;
5587;SDS011;2816;49.778;9.986;2024-01-07T04:42:23;10.73;;;7.07;;
5587;SDS011;2816;49.778;9.986;2024-01-07T04:44:50;9.70;;;6.40;;
5587;SDS011;2816;49.778;9.986;2024-01-07T04:47:23;7.80;;;6.17;;
5587;SDS011;2816;49.778;9.986;2024-01-07T04:49:54;7.73;;;5.70;;
5587;SDS011;2816;49.778;9.986;2024-01-07T04:52:22;9.60;;;5.97;;
5587;SDS011;2816;49.778;9.986;2024-01-07T04:54:50;8.43;;;4.90;;
5587;SDS011;2816;49.778;9.986;2024-01-07T04:57:17;8.50;;;4.87;;
5587;SDS011;2816;49.778;9.986;2024-01-07T04:59:45;6.53;;;5.27;;
5587;SDS011;2816;49.778;9.986;2024-01-07T05:02:11;7.00;;;4.70;;
5587;SDS011;2816;49.778;9.986;2024-01-07T05:04:40;7.80;;;5.37;;
5587;SDS011;2816;49.778;9.986;2024-01-07T05:07:07;8.10;;;5.53;;
5587;SDS011;2816;49.778;9.986;2024-01-07T05:09:34;8.83;;;5.00;;
5587;SDS011;2816;49.778;9.986;2024-01-07T05:12:01;6.20;;;4.90;;
5587;SDS011;2816;49.778;9.986;2024-01-07T05:14:29;6.37;;;4.80;;
5587;SDS011;2816;49.778;9.986;2024-01-07T05:16:57;5.73;;;5.13;;
5587;SDS011;2816;49.778;9.986;2024-01-07T05:19:24;5.60;;;4.80;;
5587;SDS011;2816;49.778;9.986;2024-01-07T05:21:51;4.83;;;4.13;;
5587;SDS011;2816;49.778;9.986;2024-01-07T05:24:18;6.07;;;4.60;;
5587;SDS011;2816;49.778;9.986;2024-01-07T05:26:45;6.17;;;4.50;;
5587;SDS011;2816;49.778;9.986;2024-01-07T05:29:12;4.10;;;3.70;;
5587;SDS011;2816;49.778;9.986;2024-01-07T05:31:39;4.10;;;3.60;;
5587;SDS011;2816;49.778;9.986;2024-01-07T05:34:07;4.90;;;4.37;;
5587;SDS011;2816;49.778;9.986;2024-01-07T05:36:34;3.97;;;3.37;;
5587;SDS011;2816;49.778;9.986;2024-01-07T05:39:01;4.57;;;3.90;;
5587;SDS011;2816;49.778;9.986;2024-01-07T05:41:29;4.40;;;4.00;;
5587;SDS011;2816;49.778;9.986;2024-01-07T05:43:56;4.20;;;3.70;;
5587;SDS011;2816;49.778;9.986;2024-01-07T05:46:22;3.77;;;3.33;;
5587;SDS011;2816;49.778;9.986;2024-01-07T05:48:49;8.00;;;3.93;;
5587;SDS011;2816;49.778;9.986;2024-01-07T05:51:18;4.33;;;3.53;;
5587;SDS011;2816;49.778;9.986;2024-01-07T05:53:45;3.77;;;3.37;;
5587;SDS011;2816;49.778;9.986;2024-01-07T05:56:12;4.50;;;3.40;;
5587;SDS011;2816;49.778;9.986;2024-01-07T05:58:39;4.23;;;3.80;;
5587;SDS011;2816;49.778;9.986;2024-01-07T06:01:06;5.37;;;4.20;;
5587;SDS011;2816;49.778;9.986;2024-01-07T06:03:33;4.27;;;3.23;;
5587;SDS011;2816;49.778;9.986;2024-01-07T06:06:00;3.97;;;3.63;;
5587;SDS011;2816;49.778;9.986;2024-01-07T06:08:29;4.47;;;3.10;;
5587;SDS011;2816;49.778;9.986;2024-01-07T06:10:55;5.03;;;2.80;;
5587;SDS011;2816;49.778;9.986;2024-01-07T06:13:23;4.80;;;4.03;;
5587;SDS011;2816;49.778;9.986;2024-01-07T06:15:50;4.00;;;3.43;;
5587;SDS011;2816;49.778;9.986;2024-01-07T06:18:16;5.70;;;4.30;;
5587;SDS011;2816;49.778;9.986;2024-01-07T06:20:43;4.93;;;3.63;;
5587;SDS011;2816;49.778;9.986;2024-01-07T06:23:10;6.87;;;4.10;;
5587;SDS011;2816;49.778;9.986;2024-01-07T06:25:39;4.80;;;3.73;;
5587;SDS011;2816;49.778;9.986;2024-01-07T06:28:06;5.13;;;3.80;;
5587;SDS011;2816;49.778;9.986;2024-01-07T06:30:33;4.50;;;3.60;;
5587;SDS011;2816;49.778;9.986;2024-01-07T06:33:00;7.10;;;3.60;;
5587;SDS011;2816;49.778;9.986;2024-01-07T06:35:27;4.23;;;3.80;;
5587;SDS011;2816;49.778;9.986;2024-01-07T06:37:54;4.93;;;3.97;;
5587;SDS011;2816;49.778;9.986;2024-01-07T06:40:20;3.97;;;3.47;;
5587;SDS011;2816;49.778;9.986;2024-01-07T06:42:49;3.77;;;3.37;;
5587;SDS011;2816;49.778;9.986;2024-01-07T06:45:16;4.17;;;3.60;;
5587;SDS011;2816;49.778;9.986;2024-01-07T06:47:43;3.90;;;2.93;;
5587;SDS011;2816;49.778;9.986;2024-01-07T06:50:11;4.00;;;3.53;;
5587;SDS011;2816;49.778;9.986;2024-01-07T06:52:38;4.10;;;3.50;;
5587;SDS011;2816;49.778;9.986;2024-01-07T06:55:06;4.93;;;3.67;;
5587;SDS011;2816;49.778;9.986;2024-01-07T06:57:33;4.27;;;3.30;;
5587;SDS011;2816;49.778;9.986;2024-01-07T07:00:02;4.50;;;3.23;;
5587;SDS011;2816;49.778;9.986;2024-01-07T07:02:29;4.30;;;3.60;;
5587;SDS011;2816;49.778;9.986;2024-01-07T07:04:56;4.30;;;3.40;;
5587;SDS011;2816;49.778;9.986;2024-01-07T07:07:23;4.23;;;3.80;;
5587;SDS011;2816;49.778;9.986;2024-01-07T07:09:50;4.80;;;3.20;;
5587;SDS011;2816;49.778;9.986;2024-01-07T07:12:17;3.80;;;3.50;;
5587;SDS011;2816;49.778;9.986;2024-01-07T07:14:44;4.47;;;3.60;;
5587;SDS011;2816;49.778;9.986;2024-01-07T07:17:13;5.23;;;4.20;;
5587;SDS011;2816;49.778;9.986;2024-01-07T07:19:40;4.53;;;3.67;;
5587;SDS011;2816;49.778;9.986;2024-01-07T07:22:07;5.40;;;3.93;;
5587;SDS011;2816;49.778;9.986;2024-01-07T07:24:34;7.07;;;4.43;;
5587;SDS011;2816;49.778;9.986;2024-01-07T07:27:00;5.80;;;4.83;;
5587;SDS011;2816;49.778;9.986;2024-01-07T07:29:27;11.40;;;7.00;;
5587;SDS011;2816;49.778;9.986;2024-01-07T07:31:54;7.00;;;6.00;;
5587;SDS011;2816;49.778;9.986;2024-01-07T07:34:23;8.13;;;6.10;;
5587;SDS011;2816;49.778;9.986;2024-01-07T07:36:49;6.33;;;4.90;;
5587;SDS011;2816;49.778;9.986;2024-01-07T07:39:16;8.53;;;5.50;;
5587;SDS011;2816;49.778;9.986;2024-01-07T07:41:43;7.17;;;5.17;;
5587;SDS011;2816;49.778;9.986;2024-01-07T07:44:10;6.53;;;4.83;;
5587;SDS011;2816;49.778;9.986;2024-01-07T07:46:37;7.63;;;5.80;;
5587;SDS011;2816;49.778;9.986;2024-01-07T07:49:04;9.40;;;6.30;;
5587;SDS011;2816;49.778;9.986;2024-01-07T07:51:32;8.53;;;5.57;;
5587;SDS011;2816;49.778;9.986;2024-01-07T07:53:59;6.90;;;5.20;;
5587;SDS011;2816;49.778;9.986;2024-01-07T07:56:26;8.20;;;5.97;;
5587;SDS011;2816;49.778;9.986;2024-01-07T07:58:53;9.40;;;6.07;;
5587;SDS011;2816;49.778;9.986;2024-01-07T08:01:20;7.70;;;5.83;;
5587;SDS011;2816;49.778;9.986;2024-01-07T08:03:47;6.73;;;5.70;;
5587;SDS011;2816;49.778;9.986;2024-01-07T08:06:14;6.10;;;4.63;;
5587;SDS011;2816;49.778;9.986;2024-01-07T08:08:43;7.23;;;5.07;;
5587;SDS011;2816;49.778;9.986;2024-01-07T08:11:10;9.13;;;5.97;;
5587;SDS011;2816;49.778;9.986;2024-01-07T08:13:37;6.80;;;5.40;;
5587;SDS011;2816;49.778;9.986;2024-01-07T08:16:04;6.97;;;5.97;;
5587;SDS011;2816;49.778;9.986;2024-01-07T08:18:32;6.53;;;5.07;;
5587;SDS011;2816;49.778;9.986;2024-01-07T08:20:59;7.43;;;5.43;;
5587;SDS011;2816;49.778;9.986;2024-01-07T08:23:25;9.97;;;5.93;;
5587;SDS011;2816;49.778;9.986;2024-01-07T08:25:54;8.17;;;5.23;;
5587;SDS011;2816;49.778;9.986;2024-01-07T08:28:21;8.00;;;5.93;;
5587;SDS011;2816;49.778;9.986;2024-01-07T08:30:47;7.23;;;5.73;;
5587;SDS011;2816;49.778;9.986;2024-01-07T08:33:16;8.17;;;6.10;;
5587;SDS011;2816;49.778;9.986;2024-01-07T08:35:43;7.20;;;5.60;;
5587;SDS011;2816;49.778;9.986;2024-01-07T08:38:10;7.07;;;5.90;;
5587;SDS011;2816;49.778;9.986;2024-01-07T08:40:38;7.17;;;5.53;;
5587;SDS011;2816;49.778;9.986;2024-01-07T08:43:07;8.73;;;6.00;;
5587;SDS011;2816;49.778;9.986;2024-01-07T08:45:34;6.33;;;4.20;;
5587;SDS011;2816;49.778;9.986;2024-01-07T08:48:00;11.87;;;6.20;;
5587;SDS011;2816;49.778;9.986;2024-01-07T08:50:27;8.37;;;6.37;;
5587;SDS011;2816;49.778;9.986;2024-01-07T08:52:55;8.80;;;6.10;;
5587;SDS011;2816;49.778;9.986;2024-01-07T08:55:23;9.07;;;6.90;;
5587;SDS011;2816;49.778;9.986;2024-01-07T08:57:50;9.47;;;6.90;;
5587;SDS011;2816;49.778;9.986;2024-01-07T09:00:19;10.10;;;6.47;;
5587;SDS011;2816;49.778;9.986;2024-01-07T09:02:50;7.83;;;5.47;;
5587;SDS011;2816;49.778;9.986;2024-01-07T09:05:17;7.67;;;6.00;;
5587;SDS011;2816;49.778;9.986;2024-01-07T09:07:44;8.53;;;6.67;;
5587;SDS011;2816;49.778;9.986;2024-01-07T09:10:11;8.70;;;6.90;;
5587;SDS011;2816;49.778;9.986;2024-01-07T09:12:38;8.30;;;5.90;;
5587;SDS011;2816;49.778;9.986;2024-01-07T09:15:05;9.33;;;6.40;;
5587;SDS011;2816;49.778;9.986;2024-01-07T09:17:35;10.37;;;6.00;;
5587;SDS011;2816;49.778;9.986;2024-01-07T09:20:03;9.57;;;5.90;;
5587;SDS011;2816;49.778;9.986;2024-01-07T09:22:32;9.60;;;6.50;;
5587;SDS011;2816;49.778;9.986;2024-01-07T09:25:00;11.53;;;7.27;;
5587;SDS011;2816;49.778;9.986;2024-01-07T09:27:28;11.17;;;8.30;;
5587;SDS011;2816;49.778;9.986;2024-01-07T09:29:55;9.70;;;6.20;;
5587;SDS011;2816;49.778;9.986;2024-01-07T09:32:22;8.90;;;6.83;;
5587;SDS011;2816;49.778;9.986;2024-01-07T09:34:51;12.37;;;6.67;;
5587;SDS011;2816;49.778;9.986;2024-01-07T09:37:18;9.47;;;6.83;;
5587;SDS011;2816;49.778;9.986;2024-01-07T09:39:47;11.60;;;8.70;;
5587;SDS011;2816;49.778;9.986;2024-01-07T09:42:14;10.03;;;7.53;;
5587;SDS011;2816;49.778;9.986;2024-01-07T09:44:42;11.37;;;7.23;;
5587;SDS011;2816;49.778;9.986;2024-01-07T09:47:10;9.20;;;7.30;;
5587;SDS011;2816;49.778;9.986;2024-01-07T09:49:37;12.30;;;7.33;;
5587;SDS011;2816;49.778;9.986;2024-01-07T09:52:07;11.80;;;7.67;;
5587;SDS011;2816;49.778;9.986;2024-01-07T09:54:35;8.30;;;6.00;;
5587;SDS011;2816;49.778;9.986;2024-01-07T09:57:05;10.43;;;6.30;;
5587;SDS011;2816;49.778;9.986;2024-01-07T09:59:33;9.10;;;7.00;;
5587;SDS011;2816;49.778;9.986;2024-01-07T10:02:00;8.00;;;6.30;;
5587;SDS011;2816;49.778;9.986;2024-01-07T10:04:27;11.07;;;7.10;;
5587;SDS011;2816;49.778;9.986;2024-01-07T10:06:55;11.43;;;6.40;;
5587;SDS011;2816;49.778;9.986;2024-01-07T10:09:24;10.10;;;5.33;;
5587;SDS011;2816;49.778;9.986;2024-01-07T10:11:56;11.93;;;8.00;;
5587;SDS011;2816;49.778;9.986;2024-01-07T10:14:23;11.67;;;8.40;;
5587;SDS011;2816;49.778;9.986;2024-01-07T10:16:52;14.27;;;7.87;;
5587;SDS011;2816;49.778;9.986;2024-01-07T10:19:19;9.13;;;7.53;;
5587;SDS011;2816;49.778;9.986;2024-01-07T10:21:52;13.30;;;7.30;;
5587;SDS011;2816;49.778;9.986;2024-01-07T10:24:27;11.97;;;7.63;;
5587;SDS011;2816;49.778;9.986;2024-01-07T10:27:03;11.93;;;7.10;;
5587;SDS011;2816;49.778;9.986;2024-01-07T10:29:30;14.10;;;8.20;;
5587;SDS011;2816;49.778;9.986;2024-01-07T10:31:58;11.63;;;7.73;;
5587;SDS011;2816;49.778;9.986;2024-01-07T10:34:28;9.20;;;7.03;;
5587;SDS011;2816;49.778;9.986;2024-01-07T10:36:55;12.67;;;7.27;;
5587;SDS011;2816;49.778;9.986;2024-01-07T10:39:24;11.27;;;6.80;;
5587;SDS011;2816;49.778;9.986;2024-01-07T10:41:53;10.33;;;7.70;;
5587;SDS011;2816;49.778;9.986;2024-01-07T10:44:23;9.57;;;6.73;;
5587;SDS011;2816;49.778;9.986;2024-01-07T10:46:52;11.93;;;8.00;;
5587;SDS011;2816;49.778;9.986;2024-01-07T10:49:20;11.90;;;7.07;;
5587;SDS011;2816;49.778;9.986;2024-01-07T10:51:50;12.77;;;8.47;;
5587;SDS011;2816;49.778;9.986;2024-01-07T10:54:24;9.67;;;7.47;;
5587;SDS011;2816;49.778;9.986;2024-01-07T10:56:57;13.03;;;7.30;;
5587;SDS011;2816;49.778;9.986;2024-01-07T10:59:26;9.73;;;6.53;;
5587;SDS011;2816;49.778;9.986;2024-01-07T11:01:55;11.20;;;6.87;;
5587;SDS011;2816;49.778;9.986;2024-01-07T11:04:23;8.00;;;5.80;;
5587;SDS011;2816;49.778;9.986;2024-01-07T11:06:59;7.60;;;5.77;;
5587;SDS011;2816;49.778;9.986;2024-01-07T11:09:33;7.00;;;5.07;;
5587;SDS011;2816;49.778;9.986;2024-01-07T11:12:05;6.80;;;5.17;;
5587;SDS011;2816;49.778;9.986;2024-01-07T11:14:38;8.20;;;5.37;;
5587;SDS011;2816;49.778;9.986;2024-01-07T11:17:05;6.63;;;4.97;;
5587;SDS011;2816;49.778;9.986;2024-01-07T11:19:32;9.20;;;6.03;;
5587;SDS011;2816;49.778;9.986;2024-01-07T11:24:54;8.90;;;6.57;;
5587;SDS011;2816;49.778;9.986;2024-01-07T11:27:21;11.23;;;7.47;;
5587;SDS011;2816;49.778;9.986;2024-01-07T11:29:55;8.87;;;6.47;;
5587;SDS011;2816;49.778;9.986;2024-01-07T11:32:23;10.60;;;7.07;;
5587;SDS011;2816;49.778;9.986;2024-01-07T11:34:51;7.50;;;6.10;;
5587;SDS011;2816;49.778;9.986;2024-01-07T11:37:19;7.03;;;5.83;;
5587;SDS011;2816;49.778;9.986;2024-01-07T11:39:46;8.63;;;4.53;;
5587;SDS011;2816;49.778;9.986;2024-01-07T11:42:16;9.20;;;4.50;;
5587;SDS011;2816;49.778;9.986;2024-01-07T11:44:46;6.80;;;5.30;;
5587;SDS011;2816;49.778;9.986;2024-01-07T11:47:14;9.10;;;5.57;;
5587;SDS011;2816;49.778;9.986;2024-01-07T11:49:42;10.43;;;6.07;;
5587;SDS011;2816;49.778;9.986;2024-01-07T11:52:10;13.10;;;5.67;;
5587;SDS011;2816;49.778;9.986;2024-01-07T11:54:37;9.00;;;6.07;;
5587;SDS011;2816;49.778;9.986;2024-01-07T11:57:04;7.23;;;5.03;;
5587;SDS011;2816;49.778;9.986;2024-01-07T11:59:32;6.97;;;4.70;;
5587;SDS011;2816;49.778;9.986;2024-01-07T12:01:59;6.07;;;4.67;;
5587;SDS011;2816;49.778;9.986;2024-01-07T12:04:27;5.10;;;4.23;;
5587;SDS011;2816;49.778;9.986;2024-01-07T12:06:54;8.67;;;4.07;;
5587;SDS011;2816;49.778;9.986;2024-01-07T12:09:21;8.83;;;4.97;;
5587;SDS011;2816;49.778;9.986;2024-01-07T12:11:48;7.27;;;4.50;;
5587;SDS011;2816;49.778;9.986;2024-01-07T12:14:15;6.37;;;4.10;;
5587;SDS011;2816;49.778;9.986;2024-01-07T12:16:44;6.40;;;4.50;;
5587;SDS011;2816;49.778;9.986;2024-01-07T12:19:11;6.10;;;3.80;;
5587;SDS011;2816;49.778;9.986;2024-01-07T12:21:38;5.53;;;4.47;;
5587;SDS011;2816;49.778;9.986;2024-01-07T12:24:05;8.70;;;5.00;;
5587;SDS011;2816;49.778;9.986;2024-01-07T12:26:32;11.10;;;5.70;;
5587;SDS011;2816;49.778;9.986;2024-01-07T12:28:59;6.40;;;5.20;;
5587;SDS011;2816;49.778;9.986;2024-01-07T12:31:29;4.73;;;4.27;;
5587;SDS011;2816;49.778;9.986;2024-01-07T12:33:58;6.27;;;3.70;;
5587;SDS011;2816;49.778;9.986;2024-01-07T12:36:29;4.00;;;3.40;;
5587;SDS011;2816;49.778;9.986;2024-01-07T12:38:56;5.60;;;3.93;;
5587;SDS011;2816;49.778;9.986;2024-01-07T12:41:23;5.93;;;3.87;;
5587;SDS011;2816;49.778;9.986;2024-01-07T12:43:50;5.57;;;4.53;;
5587;SDS011;2816;49.778;9.986;2024-01-07T12:46:17;7.13;;;4.27;;
5587;SDS011;2816;49.778;9.986;2024-01-07T12:48:44;5.70;;;4.10;;
5587;SDS011;2816;49.778;9.986;2024-01-07T12:51:12;4.20;;;3.80;;
5587;SDS011;2816;49.778;9.986;2024-01-07T12:53:39;7.23;;;5.20;;
5587;SDS011;2816;49.778;9.986;2024-01-07T12:56:06;6.77;;;4.30;;
5587;SDS011;2816;49.778;9.986;2024-01-07T12:58:33;11.03;;;5.43;;
5587;SDS011;2816;49.778;9.986;2024-01-07T13:01:00;8.67;;;5.63;;
5587;SDS011;2816;49.778;9.986;2024-01-07T13:03:28;8.00;;;5.50;;
5587;SDS011;2816;49.778;9.986;2024-01-07T13:05:55;9.77;;;5.90;;
5587;SDS011;2816;49.778;9.986;2024-01-07T13:08:24;7.53;;;6.07;;
5587;SDS011;2816;49.778;9.986;2024-01-07T13:10:52;13.20;;;6.00;;
5587;SDS011;2816;49.778;9.986;2024-01-07T13:13:19;9.83;;;5.20;;
5587;SDS011;2816;49.778;9.986;2024-01-07T13:15:47;8.37;;;5.70;;
5587;SDS011;2816;49.778;9.986;2024-01-07T13:18:15;8.20;;;5.43;;
5587;SDS011;2816;49.778;9.986;2024-01-07T13:20:42;7.10;;;4.97;;
5587;SDS011;2816;49.778;9.986;2024-01-07T13:23:09;7.70;;;5.30;;
5587;SDS011;2816;49.778;9.986;2024-01-07T13:25:37;7.90;;;4.90;;
5587;SDS011;2816;49.778;9.986;2024-01-07T13:28:04;8.67;;;5.37;;
5587;SDS011;2816;49.778;9.986;2024-01-07T13:30:35;6.70;;;4.80;;
5587;SDS011;2816;49.778;9.986;2024-01-07T13:33:03;8.27;;;5.27;;
5587;SDS011;2816;49.778;9.986;2024-01-07T13:35:30;10.47;;;5.33;;
5587;SDS011;2816;49.778;9.986;2024-01-07T13:37:57;12.97;;;4.83;;
5587;SDS011;2816;49.778;9.986;2024-01-07T13:40:24;8.33;;;5.27;;
5587;SDS011;2816;49.778;9.986;2024-01-07T13:42:53;7.53;;;4.87;;
5587;SDS011;2816;49.778;9.986;2024-01-07T13:45:20;6.97;;;5.33;;
5587;SDS011;2816;49.778;9.986;2024-01-07T13:47:48;6.77;;;4.77;;
5587;SDS011;2816;49.778;9.986;2024-01-07T13:50:15;7.07;;;5.00;;
5587;SDS011;2816;49.778;9.986;2024-01-07T13:52:42;5.67;;;4.33;;
5587;SDS011;2816;49.778;9.986;2024-01-07T13:55:09;11.40;;;6.40;;
5587;SDS011;2816;49.778;9.986;2024-01-07T13:57:36;8.10;;;5.30;;
5587;SDS011;2816;49.778;9.986;2024-01-07T14:00:06;11.17;;;5.67;;
5587;SDS011;2816;49.778;9.986;2024-01-07T14:02:36;8.37;;;5.00;;
5587;SDS011;2816;49.778;9.986;2024-01-07T14:05:06;5.97;;;4.30;;
5587;SDS011;2816;49.778;9.986;2024-01-07T14:07:34;8.47;;;4.40;;
5587;SDS011;2816;49.778;9.986;2024-01-07T14:10:01;9.63;;;6.27;;
5587;SDS011;2816;49.778;9.986;2024-01-07T14:12:29;8.83;;;4.63;;
5587;SDS011;2816;49.778;9.986;2024-01-07T14:14:56;9.80;;;4.63;;
5587;SDS011;2816;49.778;9.986;2024-01-07T14:17:25;13.33;;;5.00;;
5587;SDS011;2816;49.778;9.986;2024-01-07T14:19:52;8.77;;;5.10;;
5587;SDS011;2816;49.778;9.986;2024-01-07T14:22:19;6.47;;;4.33;;
5587;SDS011;2816;49.778;9.986;2024-01-07T14:24:46;7.00;;;4.50;;
5587;SDS011;2816;49.778;9.986;2024-01-07T14:27:13;8.10;;;4.47;;
5587;SDS011;2816;49.778;9.986;2024-01-07T14:29:40;6.90;;;4.50;;
5587;SDS011;2816;49.778;9.986;2024-01-07T14:32:08;7.53;;;4.57;;
5587;SDS011;2816;49.778;9.986;2024-01-07T14:34:38;8.50;;;5.00;;
5587;SDS011;2816;49.778;9.986;2024-01-07T14:37:06;8.40;;;4.93;;
5587;SDS011;2816;49.778;9.986;2024-01-07T14:39:35;6.10;;;4.43;;
5587;SDS011;2816;49.778;9.986;2024-01-07T14:42:02;9.10;;;5.50;;
5587;SDS011;2816;49.778;9.986;2024-01-07T14:44:29;8.67;;;4.63;;
5587;SDS011;2816;49.778;9.986;2024-01-07T14:46:56;6.73;;;4.97;;
5587;SDS011;2816;49.778;9.986;2024-01-07T14:49:23;7.63;;;4.40;;
5587;SDS011;2816;49.778;9.986;2024-01-07T14:51:51;8.33;;;4.27;;
5587;SDS011;2816;49.778;9.986;2024-01-07T14:54:18;7.80;;;5.70;;
5587;SDS011;2816;49.778;9.986;2024-01-07T14:56:45;6.63;;;4.20;;
5587;SDS011;2816;49.778;9.986;2024-01-07T14:59:11;6.37;;;5.13;;
5587;SDS011;2816;49.778;9.986;2024-01-07T15:01:39;6.50;;;4.20;;
5587;SDS011;2816;49.778;9.986;2024-01-07T15:04:08;7.30;;;4.73;;
5587;SDS011;2816;49.778;9.986;2024-01-07T15:06:40;6.80;;;4.37;;
5587;SDS011;2816;49.778;9.986;2024-01-07T15:09:08;8.17;;;4.60;;
5587;SDS011;2816;49.778;9.986;2024-01-07T15:11:36;7.37;;;4.57;;
5587;SDS011;2816;49.778;9.986;2024-01-07T15:14:06;7.30;;;4.70;;